sensor_id;sensor_type;location;lat;lon;timestamp;temperature;humidity
8945;DHT22;4507;40.232;29.132;2023-08-07T00:00:03;25.10;75.60
8945;DHT22;4507;40.232;29.132;2023-08-07T00:02:39;25.10;75.30
8945;DHT22;4507;40.232;29.132;2023-08-07T00:05:08;25.20;75.00
8945;DHT22;4507;40.232;29.132;2023-08-07T00:07:37;25.20;74.50
8945;DHT22;4507;40.232;29.132;2023-08-07T00:10:07;25.30;74.10
8945;DHT22;4507;40.232;29.132;2023-08-07T00:12:37;25.40;74.10
8945;DHT22;4507;40.232;29.132;2023-08-07T00:15:09;25.40;73.80
8945;DHT22;4507;40.232;29.132;2023-08-07T00:17:57;25.20;74.40
8945;DHT22;4507;40.232;29.132;2023-08-07T00:20:26;25.10;74.10
8945;DHT22;4507;40.232;29.132;2023-08-07T00:23:14;25.10;74.80
8945;DHT22;4507;40.232;29.132;2023-08-07T00:25:43;24.90;75.00
8945;DHT22;4507;40.232;29.132;2023-08-07T00:28:12;24.90;75.50
8945;DHT22;4507;40.232;29.132;2023-08-07T00:30:43;24.90;76.00
8945;DHT22;4507;40.232;29.132;2023-08-07T00:33:13;24.90;76.20
8945;DHT22;4507;40.232;29.132;2023-08-07T00:36:01;24.80;76.30
8945;DHT22;4507;40.232;29.132;2023-08-07T00:38:31;24.80;77.30
8945;DHT22;4507;40.232;29.132;2023-08-07T00:41:01;24.80;76.90
8945;DHT22;4507;40.232;29.132;2023-08-07T00:43:31;24.80;77.40
8945;DHT22;4507;40.232;29.132;2023-08-07T00:46:04;24.80;77.80
8945;DHT22;4507;40.232;29.132;2023-08-07T00:48:34;24.70;78.00
8945;DHT22;4507;40.232;29.132;2023-08-07T00:51:05;24.70;78.30
8945;DHT22;4507;40.232;29.132;2023-08-07T00:53:38;24.60;78.60
8945;DHT22;4507;40.232;29.132;2023-08-07T00:56:08;24.50;79.10
8945;DHT22;4507;40.232;29.132;2023-08-07T00:58:38;24.50;79.50
8945;DHT22;4507;40.232;29.132;2023-08-07T01:01:10;24.40;79.90
8945;DHT22;4507;40.232;29.132;2023-08-07T01:03:40;24.30;80.40
8945;DHT22;4507;40.232;29.132;2023-08-07T01:06:11;24.20;80.80
8945;DHT22;4507;40.232;29.132;2023-08-07T01:08:40;24.20;81.10
8945;DHT22;4507;40.232;29.132;2023-08-07T01:11:22;24.10;81.20
8945;DHT22;4507;40.232;29.132;2023-08-07T01:14:00;24.00;81.50
8945;DHT22;4507;40.232;29.132;2023-08-07T01:16:36;24.00;81.90
8945;DHT22;4507;40.232;29.132;2023-08-07T01:19:12;23.90;82.10
8945;DHT22;4507;40.232;29.132;2023-08-07T01:22:07;23.90;82.20
8945;DHT22;4507;40.232;29.132;2023-08-07T01:24:39;23.90;82.30
8945;DHT22;4507;40.232;29.132;2023-08-07T01:27:20;23.80;82.60
8945;DHT22;4507;40.232;29.132;2023-08-07T01:29:56;23.80;82.90
8945;DHT22;4507;40.232;29.132;2023-08-07T01:32:32;23.80;82.90
8945;DHT22;4507;40.232;29.132;2023-08-07T01:35:05;23.90;82.90
8945;DHT22;4507;40.232;29.132;2023-08-07T01:37:39;23.90;83.00
8945;DHT22;4507;40.232;29.132;2023-08-07T01:40:10;23.90;83.30
8945;DHT22;4507;40.232;29.132;2023-08-07T01:42:41;23.90;83.30
8945;DHT22;4507;40.232;29.132;2023-08-07T01:45:12;23.90;83.40
8945;DHT22;4507;40.232;29.132;2023-08-07T01:47:42;23.90;83.40
8945;DHT22;4507;40.232;29.132;2023-08-07T01:50:11;23.90;83.40
8945;DHT22;4507;40.232;29.132;2023-08-07T01:52:42;23.90;83.30
8945;DHT22;4507;40.232;29.132;2023-08-07T01:55:12;23.90;83.20
8945;DHT22;4507;40.232;29.132;2023-08-07T01:57:52;23.80;83.20
8945;DHT22;4507;40.232;29.132;2023-08-07T02:00:21;23.70;83.30
8945;DHT22;4507;40.232;29.132;2023-08-07T02:02:51;23.70;83.50
8945;DHT22;4507;40.232;29.132;2023-08-07T02:05:21;23.60;83.50
8945;DHT22;4507;40.232;29.132;2023-08-07T02:07:56;23.50;83.50
8945;DHT22;4507;40.232;29.132;2023-08-07T02:10:26;23.50;83.80
8945;DHT22;4507;40.232;29.132;2023-08-07T02:12:57;23.40;83.90
8945;DHT22;4507;40.232;29.132;2023-08-07T02:15:27;23.30;84.00
8945;DHT22;4507;40.232;29.132;2023-08-07T02:17:57;23.30;84.10
8945;DHT22;4507;40.232;29.132;2023-08-07T02:20:26;23.30;84.30
8945;DHT22;4507;40.232;29.132;2023-08-07T02:22:57;23.30;84.50
8945;DHT22;4507;40.232;29.132;2023-08-07T02:25:27;23.30;84.70
8945;DHT22;4507;40.232;29.132;2023-08-07T02:27:57;23.30;84.80
8945;DHT22;4507;40.232;29.132;2023-08-07T02:30:26;23.30;84.80
8945;DHT22;4507;40.232;29.132;2023-08-07T02:32:55;23.20;84.70
8945;DHT22;4507;40.232;29.132;2023-08-07T02:35:25;23.30;84.80
8945;DHT22;4507;40.232;29.132;2023-08-07T02:37:55;23.20;84.70
8945;DHT22;4507;40.232;29.132;2023-08-07T02:40:25;23.20;84.70
8945;DHT22;4507;40.232;29.132;2023-08-07T02:42:54;23.20;84.80
8945;DHT22;4507;40.232;29.132;2023-08-07T02:45:23;23.10;84.90
8945;DHT22;4507;40.232;29.132;2023-08-07T02:47:52;23.00;85.00
8945;DHT22;4507;40.232;29.132;2023-08-07T02:50:22;23.00;85.20
8945;DHT22;4507;40.232;29.132;2023-08-07T02:52:52;23.00;85.40
8945;DHT22;4507;40.232;29.132;2023-08-07T02:55:23;23.00;85.70
8945;DHT22;4507;40.232;29.132;2023-08-07T02:57:52;22.90;85.90
8945;DHT22;4507;40.232;29.132;2023-08-07T03:00:21;22.90;86.00
8945;DHT22;4507;40.232;29.132;2023-08-07T03:02:51;22.90;85.90
8945;DHT22;4507;40.232;29.132;2023-08-07T03:05:20;22.80;86.00
8945;DHT22;4507;40.232;29.132;2023-08-07T03:07:49;22.80;86.20
8945;DHT22;4507;40.232;29.132;2023-08-07T03:10:18;22.80;87.20
8945;DHT22;4507;40.232;29.132;2023-08-07T03:12:52;22.80;86.70
8945;DHT22;4507;40.232;29.132;2023-08-07T03:15:39;22.70;86.70
8945;DHT22;4507;40.232;29.132;2023-08-07T03:18:10;22.70;86.90
8945;DHT22;4507;40.232;29.132;2023-08-07T03:20:47;22.60;87.00
8945;DHT22;4507;40.232;29.132;2023-08-07T03:23:19;22.60;87.20
8945;DHT22;4507;40.232;29.132;2023-08-07T03:25:48;22.60;87.20
8945;DHT22;4507;40.232;29.132;2023-08-07T03:28:22;22.60;87.40
8945;DHT22;4507;40.232;29.132;2023-08-07T03:30:51;22.60;87.60
8945;DHT22;4507;40.232;29.132;2023-08-07T03:33:22;22.70;87.80
8945;DHT22;4507;40.232;29.132;2023-08-07T03:35:53;22.70;87.80
8945;DHT22;4507;40.232;29.132;2023-08-07T03:38:23;22.70;87.70
8945;DHT22;4507;40.232;29.132;2023-08-07T03:41:11;22.70;87.70
8945;DHT22;4507;40.232;29.132;2023-08-07T03:43:43;22.80;87.90
8945;DHT22;4507;40.232;29.132;2023-08-07T03:46:13;22.80;87.90
8945;DHT22;4507;40.232;29.132;2023-08-07T03:48:44;22.80;87.60
8945;DHT22;4507;40.232;29.132;2023-08-07T03:51:15;22.80;87.20
8945;DHT22;4507;40.232;29.132;2023-08-07T03:53:49;22.80;87.00
8945;DHT22;4507;40.232;29.132;2023-08-07T03:56:18;22.90;87.30
8945;DHT22;4507;40.232;29.132;2023-08-07T03:58:48;22.90;87.20
8945;DHT22;4507;40.232;29.132;2023-08-07T04:01:20;23.00;86.90
8945;DHT22;4507;40.232;29.132;2023-08-07T04:03:49;23.00;86.70
8945;DHT22;4507;40.232;29.132;2023-08-07T04:06:20;23.00;86.40
8945;DHT22;4507;40.232;29.132;2023-08-07T04:08:49;23.10;86.30
8945;DHT22;4507;40.232;29.132;2023-08-07T04:11:17;23.20;86.20
8945;DHT22;4507;40.232;29.132;2023-08-07T04:13:48;23.20;86.10
8945;DHT22;4507;40.232;29.132;2023-08-07T04:16:17;23.20;86.10
8945;DHT22;4507;40.232;29.132;2023-08-07T04:18:47;23.30;86.30
8945;DHT22;4507;40.232;29.132;2023-08-07T04:21:16;23.40;86.30
8945;DHT22;4507;40.232;29.132;2023-08-07T04:23:45;23.40;86.10
8945;DHT22;4507;40.232;29.132;2023-08-07T04:26:14;23.50;85.90
8945;DHT22;4507;40.232;29.132;2023-08-07T04:28:43;23.50;85.70
8945;DHT22;4507;40.232;29.132;2023-08-07T04:31:14;23.50;85.20
8945;DHT22;4507;40.232;29.132;2023-08-07T04:33:43;23.60;85.00
8945;DHT22;4507;40.232;29.132;2023-08-07T04:36:12;23.60;84.80
8945;DHT22;4507;40.232;29.132;2023-08-07T04:38:41;23.70;85.00
8945;DHT22;4507;40.232;29.132;2023-08-07T04:41:15;23.70;85.10
8945;DHT22;4507;40.232;29.132;2023-08-07T04:43:44;23.80;85.00
8945;DHT22;4507;40.232;29.132;2023-08-07T04:46:15;23.90;85.10
8945;DHT22;4507;40.232;29.132;2023-08-07T04:48:44;24.00;85.10
8945;DHT22;4507;40.232;29.132;2023-08-07T04:51:13;24.00;84.80
8945;DHT22;4507;40.232;29.132;2023-08-07T04:53:42;24.10;84.60
8945;DHT22;4507;40.232;29.132;2023-08-07T04:56:48;24.20;84.40
8945;DHT22;4507;40.232;29.132;2023-08-07T04:59:18;24.20;84.20
8945;DHT22;4507;40.232;29.132;2023-08-07T05:01:48;24.40;84.30
8945;DHT22;4507;40.232;29.132;2023-08-07T05:04:18;24.40;84.40
8945;DHT22;4507;40.232;29.132;2023-08-07T05:06:57;24.50;84.40
8945;DHT22;4507;40.232;29.132;2023-08-07T05:09:34;24.60;84.40
8945;DHT22;4507;40.232;29.132;2023-08-07T05:12:04;24.70;84.40
8945;DHT22;4507;40.232;29.132;2023-08-07T05:14:34;24.70;84.30
8945;DHT22;4507;40.232;29.132;2023-08-07T05:17:05;24.80;84.30
8945;DHT22;4507;40.232;29.132;2023-08-07T05:19:34;24.80;83.90
8945;DHT22;4507;40.232;29.132;2023-08-07T05:22:04;24.90;83.80
8945;DHT22;4507;40.232;29.132;2023-08-07T05:24:33;24.90;83.50
8945;DHT22;4507;40.232;29.132;2023-08-07T05:27:08;25.00;83.40
8945;DHT22;4507;40.232;29.132;2023-08-07T05:29:39;25.10;83.10
8945;DHT22;4507;40.232;29.132;2023-08-07T05:32:16;25.20;83.10
8945;DHT22;4507;40.232;29.132;2023-08-07T05:35:04;25.20;82.50
8945;DHT22;4507;40.232;29.132;2023-08-07T05:37:34;25.30;82.30
8945;DHT22;4507;40.232;29.132;2023-08-07T05:40:05;25.40;82.10
8945;DHT22;4507;40.232;29.132;2023-08-07T05:42:35;25.50;81.60
8945;DHT22;4507;40.232;29.132;2023-08-07T05:45:09;25.60;81.50
8945;DHT22;4507;40.232;29.132;2023-08-07T05:47:42;25.70;81.30
8945;DHT22;4507;40.232;29.132;2023-08-07T05:50:11;25.80;81.10
8945;DHT22;4507;40.232;29.132;2023-08-07T05:52:42;25.90;80.90
8945;DHT22;4507;40.232;29.132;2023-08-07T05:55:11;25.90;80.60
8945;DHT22;4507;40.232;29.132;2023-08-07T05:57:41;26.00;80.20
8945;DHT22;4507;40.232;29.132;2023-08-07T06:00:11;26.10;79.60
8945;DHT22;4507;40.232;29.132;2023-08-07T06:02:45;26.20;79.40
8945;DHT22;4507;40.232;29.132;2023-08-07T06:05:16;26.30;78.80
8945;DHT22;4507;40.232;29.132;2023-08-07T06:07:45;26.40;78.50
8945;DHT22;4507;40.232;29.132;2023-08-07T06:10:14;26.50;77.90
8945;DHT22;4507;40.232;29.132;2023-08-07T06:16:52;26.70;78.00
8945;DHT22;4507;40.232;29.132;2023-08-07T06:19:40;26.90;77.10
8945;DHT22;4507;40.232;29.132;2023-08-07T06:22:10;27.00;76.50
8945;DHT22;4507;40.232;29.132;2023-08-07T06:25:06;27.10;76.40
8945;DHT22;4507;40.232;29.132;2023-08-07T06:27:35;27.20;76.00
8945;DHT22;4507;40.232;29.132;2023-08-07T06:30:06;27.30;75.60
8945;DHT22;4507;40.232;29.132;2023-08-07T06:32:35;27.50;74.70
8945;DHT22;4507;40.232;29.132;2023-08-07T06:35:08;27.60;73.90
8945;DHT22;4507;40.232;29.132;2023-08-07T06:37:41;27.70;73.10
8945;DHT22;4507;40.232;29.132;2023-08-07T06:40:10;27.80;72.30
8945;DHT22;4507;40.232;29.132;2023-08-07T06:42:39;27.90;71.00
8945;DHT22;4507;40.232;29.132;2023-08-07T06:45:09;28.00;70.20
8945;DHT22;4507;40.232;29.132;2023-08-07T06:47:38;28.10;69.50
8945;DHT22;4507;40.232;29.132;2023-08-07T06:53:51;28.30;68.10
8945;DHT22;4507;40.232;29.132;2023-08-07T06:56:23;28.40;66.90
8945;DHT22;4507;40.232;29.132;2023-08-07T06:58:54;28.50;65.90
8945;DHT22;4507;40.232;29.132;2023-08-07T07:05:48;28.50;64.70
8945;DHT22;4507;40.232;29.132;2023-08-07T07:08:17;28.90;63.90
8945;DHT22;4507;40.232;29.132;2023-08-07T07:14:48;29.10;61.50
8945;DHT22;4507;40.232;29.132;2023-08-07T07:17:17;29.40;60.60
8945;DHT22;4507;40.232;29.132;2023-08-07T07:19:47;29.40;59.70
8945;DHT22;4507;40.232;29.132;2023-08-07T07:26:00;29.70;57.90
8945;DHT22;4507;40.232;29.132;2023-08-07T07:28:29;29.90;56.50
8945;DHT22;4507;40.232;29.132;2023-08-07T07:31:01;29.90;56.20
8945;DHT22;4507;40.232;29.132;2023-08-07T07:33:33;30.10;55.60
8945;DHT22;4507;40.232;29.132;2023-08-07T07:36:13;30.20;55.20
8945;DHT22;4507;40.232;29.132;2023-08-07T07:38:46;30.30;54.70
8945;DHT22;4507;40.232;29.132;2023-08-07T07:41:21;30.40;54.50
8945;DHT22;4507;40.232;29.132;2023-08-07T07:43:50;30.50;54.40
8945;DHT22;4507;40.232;29.132;2023-08-07T07:46:25;30.60;54.20
8945;DHT22;4507;40.232;29.132;2023-08-07T07:48:57;30.70;54.00
8945;DHT22;4507;40.232;29.132;2023-08-07T07:51:26;30.80;53.00
8945;DHT22;4507;40.232;29.132;2023-08-07T07:53:59;30.80;52.80
8945;DHT22;4507;40.232;29.132;2023-08-07T07:56:41;30.90;52.60
8945;DHT22;4507;40.232;29.132;2023-08-07T07:59:11;31.00;52.40
8945;DHT22;4507;40.232;29.132;2023-08-07T08:01:42;31.00;52.40
8945;DHT22;4507;40.232;29.132;2023-08-07T08:04:11;31.10;51.50
8945;DHT22;4507;40.232;29.132;2023-08-07T08:06:42;31.20;51.90
8945;DHT22;4507;40.232;29.132;2023-08-07T08:12:41;31.10;51.20
8945;DHT22;4507;40.232;29.132;2023-08-07T08:15:10;31.30;50.90
8945;DHT22;4507;40.232;29.132;2023-08-07T08:17:41;31.30;51.00
8945;DHT22;4507;40.232;29.132;2023-08-07T08:20:11;31.40;50.50
8945;DHT22;4507;40.232;29.132;2023-08-07T08:22:42;31.40;50.10
8945;DHT22;4507;40.232;29.132;2023-08-07T08:25:13;31.40;49.90
8945;DHT22;4507;40.232;29.132;2023-08-07T08:27:44;31.50;50.50
8945;DHT22;4507;40.232;29.132;2023-08-07T08:30:14;31.60;49.80
8945;DHT22;4507;40.232;29.132;2023-08-07T08:36:51;31.70;49.90
8945;DHT22;4507;40.232;29.132;2023-08-07T08:39:20;31.80;49.10
8945;DHT22;4507;40.232;29.132;2023-08-07T08:41:50;31.90;48.50
8945;DHT22;4507;40.232;29.132;2023-08-07T08:44:20;31.90;49.00
8945;DHT22;4507;40.232;29.132;2023-08-07T08:46:52;31.90;48.70
8945;DHT22;4507;40.232;29.132;2023-08-07T08:52:51;32.10;48.70
8945;DHT22;4507;40.232;29.132;2023-08-07T08:55:22;32.10;48.60
8945;DHT22;4507;40.232;29.132;2023-08-07T09:01:51;32.20;47.90
8945;DHT22;4507;40.232;29.132;2023-08-07T09:04:21;32.30;48.30
8945;DHT22;4507;40.232;29.132;2023-08-07T09:06:50;32.40;48.10
8945;DHT22;4507;40.232;29.132;2023-08-07T09:09:21;32.40;48.20
8945;DHT22;4507;40.232;29.132;2023-08-07T09:11:52;32.50;48.30
8945;DHT22;4507;40.232;29.132;2023-08-07T09:14:24;32.70;47.80
8945;DHT22;4507;40.232;29.132;2023-08-07T09:16:58;32.80;47.50
8945;DHT22;4507;40.232;29.132;2023-08-07T09:19:28;32.90;47.40
8945;DHT22;4507;40.232;29.132;2023-08-07T09:22:05;33.00;46.80
8945;DHT22;4507;40.232;29.132;2023-08-07T09:24:37;33.10;46.10
8945;DHT22;4507;40.232;29.132;2023-08-07T09:27:07;33.20;46.20
8945;DHT22;4507;40.232;29.132;2023-08-07T09:29:37;33.30;46.10
8945;DHT22;4507;40.232;29.132;2023-08-07T09:32:13;33.30;46.50
8945;DHT22;4507;40.232;29.132;2023-08-07T09:34:51;33.40;46.90
8945;DHT22;4507;40.232;29.132;2023-08-07T09:37:20;33.50;46.30
8945;DHT22;4507;40.232;29.132;2023-08-07T09:39:53;33.50;46.30
8945;DHT22;4507;40.232;29.132;2023-08-07T09:42:22;33.70;46.30
8945;DHT22;4507;40.232;29.132;2023-08-07T09:44:51;33.70;46.40
8945;DHT22;4507;40.232;29.132;2023-08-07T09:47:20;33.80;45.70
8945;DHT22;4507;40.232;29.132;2023-08-07T09:49:54;33.90;45.30
8945;DHT22;4507;40.232;29.132;2023-08-07T09:52:24;34.00;45.40
8945;DHT22;4507;40.232;29.132;2023-08-07T09:54:59;34.10;45.30
8945;DHT22;4507;40.232;29.132;2023-08-07T09:57:30;34.20;44.90
8945;DHT22;4507;40.232;29.132;2023-08-07T10:00:00;34.20;44.50
8945;DHT22;4507;40.232;29.132;2023-08-07T10:02:38;34.30;44.80
8945;DHT22;4507;40.232;29.132;2023-08-07T10:05:09;34.30;44.90
8945;DHT22;4507;40.232;29.132;2023-08-07T10:07:39;34.40;45.10
8945;DHT22;4507;40.232;29.132;2023-08-07T10:10:10;34.40;44.60
8945;DHT22;4507;40.232;29.132;2023-08-07T10:12:42;34.50;44.70
8945;DHT22;4507;40.232;29.132;2023-08-07T10:15:14;34.60;44.10
8945;DHT22;4507;40.232;29.132;2023-08-07T10:17:44;34.70;44.80
8945;DHT22;4507;40.232;29.132;2023-08-07T10:20:13;34.70;44.20
8945;DHT22;4507;40.232;29.132;2023-08-07T10:22:43;34.80;44.30
8945;DHT22;4507;40.232;29.132;2023-08-07T10:25:16;34.80;43.70
8945;DHT22;4507;40.232;29.132;2023-08-07T10:27:50;34.90;43.50
8945;DHT22;4507;40.232;29.132;2023-08-07T10:30:21;35.00;43.90
8945;DHT22;4507;40.232;29.132;2023-08-07T10:32:51;35.10;43.60
8945;DHT22;4507;40.232;29.132;2023-08-07T10:35:24;35.20;42.80
8945;DHT22;4507;40.232;29.132;2023-08-07T10:37:54;35.20;42.60
8945;DHT22;4507;40.232;29.132;2023-08-07T10:40:24;35.30;42.00
8945;DHT22;4507;40.232;29.132;2023-08-07T10:42:58;35.40;42.20
8945;DHT22;4507;40.232;29.132;2023-08-07T10:49:37;35.60;41.80
8945;DHT22;4507;40.232;29.132;2023-08-07T10:52:08;35.70;41.50
8945;DHT22;4507;40.232;29.132;2023-08-07T10:54:39;35.80;41.40
8945;DHT22;4507;40.232;29.132;2023-08-07T10:57:12;36.00;41.80
8945;DHT22;4507;40.232;29.132;2023-08-07T10:59:49;35.90;41.70
8945;DHT22;4507;40.232;29.132;2023-08-07T11:05:40;36.10;41.40
8945;DHT22;4507;40.232;29.132;2023-08-07T11:08:11;36.10;41.50
8945;DHT22;4507;40.232;29.132;2023-08-07T11:10:43;36.20;41.10
8945;DHT22;4507;40.232;29.132;2023-08-07T11:13:14;36.20;40.90
8945;DHT22;4507;40.232;29.132;2023-08-07T11:15:54;36.30;40.90
8945;DHT22;4507;40.232;29.132;2023-08-07T11:18:45;36.30;40.40
8945;DHT22;4507;40.232;29.132;2023-08-07T11:21:15;36.30;40.90
8945;DHT22;4507;40.232;29.132;2023-08-07T11:23:44;36.40;41.20
8945;DHT22;4507;40.232;29.132;2023-08-07T11:26:14;36.60;40.90
8945;DHT22;4507;40.232;29.132;2023-08-07T11:28:44;36.60;40.00
8945;DHT22;4507;40.232;29.132;2023-08-07T11:31:18;36.70;40.80
8945;DHT22;4507;40.232;29.132;2023-08-07T11:34:32;36.70;40.90
8945;DHT22;4507;40.232;29.132;2023-08-07T11:37:55;36.80;40.10
8945;DHT22;4507;40.232;29.132;2023-08-07T11:40:53;37.00;40.30
8945;DHT22;4507;40.232;29.132;2023-08-07T11:43:23;37.20;40.10
8945;DHT22;4507;40.232;29.132;2023-08-07T11:45:55;37.40;39.90
8945;DHT22;4507;40.232;29.132;2023-08-07T11:48:26;37.70;39.60
8945;DHT22;4507;40.232;29.132;2023-08-07T11:50:57;37.90;38.50
8945;DHT22;4507;40.232;29.132;2023-08-07T11:53:28;38.10;37.90
8945;DHT22;4507;40.232;29.132;2023-08-07T11:56:00;38.30;36.90
8945;DHT22;4507;40.232;29.132;2023-08-07T11:58:35;38.30;36.80
8945;DHT22;4507;40.232;29.132;2023-08-07T12:01:09;38.40;36.70
8945;DHT22;4507;40.232;29.132;2023-08-07T12:03:41;38.50;36.30
8945;DHT22;4507;40.232;29.132;2023-08-07T12:06:11;38.40;36.60
8945;DHT22;4507;40.232;29.132;2023-08-07T12:08:40;38.40;36.50
8945;DHT22;4507;40.232;29.132;2023-08-07T12:11:11;38.40;36.40
8945;DHT22;4507;40.232;29.132;2023-08-07T12:17:16;38.40;36.50
8945;DHT22;4507;40.232;29.132;2023-08-07T12:19:45;38.40;35.80
8945;DHT22;4507;40.232;29.132;2023-08-07T12:22:14;38.40;36.10
8945;DHT22;4507;40.232;29.132;2023-08-07T12:24:48;38.30;35.70
8945;DHT22;4507;40.232;29.132;2023-08-07T12:27:17;38.30;35.80
8945;DHT22;4507;40.232;29.132;2023-08-07T12:29:47;38.20;35.30
8945;DHT22;4507;40.232;29.132;2023-08-07T12:32:17;38.10;35.70
8945;DHT22;4507;40.232;29.132;2023-08-07T12:34:46;38.10;35.50
8945;DHT22;4507;40.232;29.132;2023-08-07T12:37:23;38.00;35.70
8945;DHT22;4507;40.232;29.132;2023-08-07T12:39:52;37.90;35.60
8945;DHT22;4507;40.232;29.132;2023-08-07T12:42:24;37.90;35.70
8945;DHT22;4507;40.232;29.132;2023-08-07T12:44:57;37.80;35.40
8945;DHT22;4507;40.232;29.132;2023-08-07T12:47:34;37.80;35.80
8945;DHT22;4507;40.232;29.132;2023-08-07T12:50:04;37.70;37.00
8945;DHT22;4507;40.232;29.132;2023-08-07T12:52:34;37.60;35.50
8945;DHT22;4507;40.232;29.132;2023-08-07T12:55:07;37.50;35.60
8945;DHT22;4507;40.232;29.132;2023-08-07T12:57:37;37.50;35.80
8945;DHT22;4507;40.232;29.132;2023-08-07T13:00:07;37.50;35.80
8945;DHT22;4507;40.232;29.132;2023-08-07T13:02:41;37.40;35.90
8945;DHT22;4507;40.232;29.132;2023-08-07T13:05:10;37.30;35.40
8945;DHT22;4507;40.232;29.132;2023-08-07T13:07:40;37.30;35.50
8945;DHT22;4507;40.232;29.132;2023-08-07T13:10:11;37.30;35.70
8945;DHT22;4507;40.232;29.132;2023-08-07T13:12:42;37.20;35.80
8945;DHT22;4507;40.232;29.132;2023-08-07T13:15:13;37.20;35.80
8945;DHT22;4507;40.232;29.132;2023-08-07T13:17:45;37.10;35.50
8945;DHT22;4507;40.232;29.132;2023-08-07T13:20:14;36.90;35.60
8945;DHT22;4507;40.232;29.132;2023-08-07T13:22:44;36.80;36.30
8945;DHT22;4507;40.232;29.132;2023-08-07T13:25:13;36.70;36.50
8945;DHT22;4507;40.232;29.132;2023-08-07T13:27:42;36.60;36.60
8945;DHT22;4507;40.232;29.132;2023-08-07T13:30:11;36.50;36.50
8945;DHT22;4507;40.232;29.132;2023-08-07T13:32:40;36.50;36.40
8945;DHT22;4507;40.232;29.132;2023-08-07T13:35:11;36.50;36.80
8945;DHT22;4507;40.232;29.132;2023-08-07T13:37:59;36.50;36.70
8945;DHT22;4507;40.232;29.132;2023-08-07T13:40:28;36.40;36.60
8945;DHT22;4507;40.232;29.132;2023-08-07T13:42:57;36.40;36.90
8945;DHT22;4507;40.232;29.132;2023-08-07T13:45:26;36.30;36.90
8945;DHT22;4507;40.232;29.132;2023-08-07T13:47:56;36.30;36.70
8945;DHT22;4507;40.232;29.132;2023-08-07T13:50:26;36.20;37.20
8945;DHT22;4507;40.232;29.132;2023-08-07T13:52:55;36.10;37.70
8945;DHT22;4507;40.232;29.132;2023-08-07T13:55:41;36.00;37.80
8945;DHT22;4507;40.232;29.132;2023-08-07T13:58:11;35.90;38.00
8945;DHT22;4507;40.232;29.132;2023-08-07T14:00:43;35.70;37.70
8945;DHT22;4507;40.232;29.132;2023-08-07T14:03:12;35.70;37.70
8945;DHT22;4507;40.232;29.132;2023-08-07T14:05:43;35.50;37.60
8945;DHT22;4507;40.232;29.132;2023-08-07T14:08:12;35.40;37.60
8945;DHT22;4507;40.232;29.132;2023-08-07T14:10:41;35.20;37.90
8945;DHT22;4507;40.232;29.132;2023-08-07T14:13:10;35.10;38.20
8945;DHT22;4507;40.232;29.132;2023-08-07T14:15:40;35.00;38.50
8945;DHT22;4507;40.232;29.132;2023-08-07T14:18:09;35.00;38.00
8945;DHT22;4507;40.232;29.132;2023-08-07T14:20:38;34.90;38.40
8945;DHT22;4507;40.232;29.132;2023-08-07T14:23:28;34.80;39.10
8945;DHT22;4507;40.232;29.132;2023-08-07T14:26:00;34.80;39.50
8945;DHT22;4507;40.232;29.132;2023-08-07T14:28:30;34.70;39.50
8945;DHT22;4507;40.232;29.132;2023-08-07T14:30:59;34.70;39.90
8945;DHT22;4507;40.232;29.132;2023-08-07T14:33:28;34.60;39.70
8945;DHT22;4507;40.232;29.132;2023-08-07T14:35:58;34.60;39.80
8945;DHT22;4507;40.232;29.132;2023-08-07T14:38:29;34.50;40.10
8945;DHT22;4507;40.232;29.132;2023-08-07T14:40:59;34.50;40.60
8945;DHT22;4507;40.232;29.132;2023-08-07T14:43:29;34.40;41.10
8945;DHT22;4507;40.232;29.132;2023-08-07T14:46:01;34.30;41.30
8945;DHT22;4507;40.232;29.132;2023-08-07T14:48:30;34.30;41.60
8945;DHT22;4507;40.232;29.132;2023-08-07T14:50:59;34.20;41.50
8945;DHT22;4507;40.232;29.132;2023-08-07T14:53:30;34.20;41.60
8945;DHT22;4507;40.232;29.132;2023-08-07T14:55:59;34.10;42.30
8945;DHT22;4507;40.232;29.132;2023-08-07T14:58:28;34.00;42.80
8945;DHT22;4507;40.232;29.132;2023-08-07T15:00:59;34.00;43.10
8945;DHT22;4507;40.232;29.132;2023-08-07T15:03:47;33.90;43.10
8945;DHT22;4507;40.232;29.132;2023-08-07T15:06:16;34.00;43.20
8945;DHT22;4507;40.232;29.132;2023-08-07T15:08:47;33.80;43.30
8945;DHT22;4507;40.232;29.132;2023-08-07T15:11:16;33.80;43.90
8945;DHT22;4507;40.232;29.132;2023-08-07T15:13:46;33.80;43.90
8945;DHT22;4507;40.232;29.132;2023-08-07T15:16:15;33.70;43.90
8945;DHT22;4507;40.232;29.132;2023-08-07T15:18:44;33.70;44.00
8945;DHT22;4507;40.232;29.132;2023-08-07T15:21:13;33.70;43.90
8945;DHT22;4507;40.232;29.132;2023-08-07T15:23:42;33.70;44.30
8945;DHT22;4507;40.232;29.132;2023-08-07T15:26:12;33.70;44.70
8945;DHT22;4507;40.232;29.132;2023-08-07T15:28:41;33.60;44.20
8945;DHT22;4507;40.232;29.132;2023-08-07T15:31:13;33.60;44.40
8945;DHT22;4507;40.232;29.132;2023-08-07T15:33:42;33.50;44.70
8945;DHT22;4507;40.232;29.132;2023-08-07T15:36:16;33.50;45.30
8945;DHT22;4507;40.232;29.132;2023-08-07T15:38:45;33.40;45.10
8945;DHT22;4507;40.232;29.132;2023-08-07T15:41:16;33.40;45.40
8945;DHT22;4507;40.232;29.132;2023-08-07T15:43:45;33.40;45.50
8945;DHT22;4507;40.232;29.132;2023-08-07T15:46:17;33.30;45.80
8945;DHT22;4507;40.232;29.132;2023-08-07T15:48:46;33.30;46.20
8945;DHT22;4507;40.232;29.132;2023-08-07T15:51:15;33.30;46.30
8945;DHT22;4507;40.232;29.132;2023-08-07T15:53:44;33.20;46.50
8945;DHT22;4507;40.232;29.132;2023-08-07T15:56:15;33.10;46.60
8945;DHT22;4507;40.232;29.132;2023-08-07T15:59:02;33.10;46.80
8945;DHT22;4507;40.232;29.132;2023-08-07T16:01:32;33.00;46.80
8945;DHT22;4507;40.232;29.132;2023-08-07T16:04:01;33.00;47.00
8945;DHT22;4507;40.232;29.132;2023-08-07T16:06:30;32.90;47.30
8945;DHT22;4507;40.232;29.132;2023-08-07T16:08:59;32.90;46.90
8945;DHT22;4507;40.232;29.132;2023-08-07T16:11:30;32.80;46.90
8945;DHT22;4507;40.232;29.132;2023-08-07T16:14:00;32.70;47.00
8945;DHT22;4507;40.232;29.132;2023-08-07T16:16:29;32.70;47.10
8945;DHT22;4507;40.232;29.132;2023-08-07T16:18:58;32.60;47.10
8945;DHT22;4507;40.232;29.132;2023-08-07T16:21:27;32.60;47.20
8945;DHT22;4507;40.232;29.132;2023-08-07T16:23:57;32.40;47.00
8945;DHT22;4507;40.232;29.132;2023-08-07T16:26:26;32.30;47.00
8945;DHT22;4507;40.232;29.132;2023-08-07T16:28:56;32.30;47.20
8945;DHT22;4507;40.232;29.132;2023-08-07T16:31:25;32.20;47.90
8945;DHT22;4507;40.232;29.132;2023-08-07T16:33:54;32.10;47.50
8945;DHT22;4507;40.232;29.132;2023-08-07T16:36:23;32.00;48.00
8945;DHT22;4507;40.232;29.132;2023-08-07T16:38:52;31.90;48.20
8945;DHT22;4507;40.232;29.132;2023-08-07T16:41:22;31.80;48.50
8945;DHT22;4507;40.232;29.132;2023-08-07T16:43:51;31.70;48.70
8945;DHT22;4507;40.232;29.132;2023-08-07T16:46:22;31.70;49.10
8945;DHT22;4507;40.232;29.132;2023-08-07T16:48:51;31.50;49.30
8945;DHT22;4507;40.232;29.132;2023-08-07T16:51:20;31.50;49.70
8945;DHT22;4507;40.232;29.132;2023-08-07T16:53:49;31.40;50.10
8945;DHT22;4507;40.232;29.132;2023-08-07T16:56:19;31.30;50.30
8945;DHT22;4507;40.232;29.132;2023-08-07T16:58:48;31.30;50.70